ARG1693 SAZS-SAEZ
Flight info
| Callsign | ARG1693 |
|---|---|
| Flight time | 1h 37m |
| Altitude | 39000 |
| Route | LIMAY2C LIMAY UZ109 ISMIL UT655 ASADA |
| Aircraft | A332/H-SADE1E2E3GHIJ3J5M1P2RWXY/LB2D1 |
Departure
| Time | 2026-04-26 19:01 |
|---|---|
| Airport | Teniente Luis Candelaria International Airport (SAZS) |
Arrival
| Time | 2026-04-26 20:38 |
|---|---|
| Airport | Ezeiza International Airport - Ministro Pistarini (SAEZ) |
| Time | Latitude | Longitude | Altitude | Speed | Heading |
|---|---|---|---|---|---|
| 2026-04-26 18:45 | -41.14665 | -71.16204 | 2761 ft | 0 kts | 25° |
| 2026-04-26 18:53 | -41.14674 | -71.16206 | 2761 ft | 3 kts | 50° |
| 2026-04-26 18:53 | -41.14679 | -71.16211 | 2761 ft | 3 kts | 80° |
| 2026-04-26 18:54 | -41.14682 | -71.16233 | 2761 ft | 3 kts | 52° |
| 2026-04-26 18:54 | -41.14694 | -71.16253 | 2761 ft | 3 kts | 61° |
| 2026-04-26 18:54 | -41.14700 | -71.16267 | 2761 ft | 0 kts | 67° |
| 2026-04-26 18:56 | -41.14700 | -71.16266 | 2761 ft | 1 kts | 69° |
| 2026-04-26 18:56 | -41.14705 | -71.16253 | 2759 ft | 3 kts | 102° |
| 2026-04-26 18:57 | -41.14739 | -71.16221 | 2760 ft | 14 kts | 152° |
| 2026-04-26 18:57 | -41.14792 | -71.16174 | 2761 ft | 12 kts | 141° |
| 2026-04-26 18:57 | -41.14866 | -71.16016 | 2759 ft | 18 kts | 116° |
| 2026-04-26 18:57 | -41.14926 | -71.15843 | 2758 ft | 23 kts | 114° |
| 2026-04-26 18:58 | -41.14999 | -71.15631 | 2759 ft | 27 kts | 114° |
| 2026-04-26 18:58 | -41.15080 | -71.15394 | 2758 ft | 30 kts | 115° |
| 2026-04-26 18:58 | -41.15172 | -71.15133 | 2759 ft | 33 kts | 115° |
| 2026-04-26 18:58 | -41.15274 | -71.14851 | 2760 ft | 35 kts | 116° |
| 2026-04-26 18:59 | -41.15372 | -71.14570 | 2758 ft | 22 kts | 115° |
| 2026-04-26 18:59 | -41.15393 | -71.14510 | 2758 ft | 7 kts | 115° |
| 2026-04-26 18:59 | -41.15448 | -71.14479 | 2758 ft | 12 kts | 185° |
| 2026-04-26 18:59 | -41.15521 | -71.14573 | 2757 ft | 15 kts | 266° |
| 2026-04-26 19:00 | -41.15514 | -71.14599 | 2755 ft | 7 kts | 289° |
| 2026-04-26 19:00 | -41.15402 | -71.14944 | 2757 ft | 85 kts | 294° |
| 2026-04-26 19:00 | -41.15042 | -71.15981 | 2765 ft | 159 kts | 295° |
| 2026-04-26 19:00 | -41.14541 | -71.17431 | 3257 ft | 180 kts | 292° |
| 2026-04-26 19:01 | -41.14008 | -71.18983 | 4128 ft | 185 kts | 294° |
| 2026-04-26 19:01 | -41.13473 | -71.20513 | 5090 ft | 186 kts | 295° |
| 2026-04-26 19:01 | -41.12895 | -71.22161 | 5578 ft | 209 kts | 294° |
| 2026-04-26 19:01 | -41.12270 | -71.24000 | 6165 ft | 228 kts | 294° |
| 2026-04-26 19:02 | -41.11606 | -71.25993 | 6759 ft | 242 kts | 293° |
| 2026-04-26 19:02 | -41.10916 | -71.28058 | 7384 ft | 249 kts | 292° |
| 2026-04-26 19:02 | -41.10203 | -71.30181 | 8024 ft | 254 kts | 291° |
| 2026-04-26 19:02 | -41.09714 | -71.31637 | 8480 ft | 258 kts | 291° |
| 2026-04-26 19:03 | -41.08705 | -71.34532 | 9275 ft | 271 kts | 296° |
| 2026-04-26 19:03 | -41.07350 | -71.36438 | 9575 ft | 299 kts | 323° |
| 2026-04-26 19:03 | -41.05383 | -71.37477 | 10170 ft | 314 kts | 348° |
| 2026-04-26 19:03 | -41.03164 | -71.37416 | 10609 ft | 331 kts | 12° |
| 2026-04-26 19:04 | -41.00988 | -71.36210 | 10804 ft | 350 kts | 35° |
| 2026-04-26 19:04 | -40.99212 | -71.33950 | 11101 ft | 360 kts | 59° |
| 2026-04-26 19:04 | -40.98056 | -71.31023 | 11694 ft | 360 kts | 70° |
| 2026-04-26 19:04 | -40.97054 | -71.27959 | 12284 ft | 365 kts | 72° |
| 2026-04-26 19:05 | -40.95045 | -71.21718 | 13543 ft | 373 kts | 71° |
| 2026-04-26 19:05 | -40.93994 | -71.18558 | 14157 ft | 378 kts | 71° |
| 2026-04-26 19:05 | -40.92921 | -71.15385 | 14703 ft | 382 kts | 70° |
| 2026-04-26 19:06 | -40.91835 | -71.12194 | 15294 ft | 385 kts | 70° |
| 2026-04-26 19:06 | -40.90730 | -71.08954 | 15830 ft | 389 kts | 70° |
| 2026-04-26 19:06 | -40.89612 | -71.05675 | 16360 ft | 393 kts | 70° |
| 2026-04-26 19:06 | -40.88485 | -71.02368 | 16895 ft | 397 kts | 70° |
| 2026-04-26 19:07 | -40.87345 | -70.99028 | 17468 ft | 400 kts | 70° |
| 2026-04-26 19:07 | -40.86193 | -70.95659 | 18002 ft | 405 kts | 70° |
| 2026-04-26 19:07 | -40.85028 | -70.92256 | 18528 ft | 408 kts | 70° |
| 2026-04-26 19:07 | -40.83853 | -70.88824 | 19000 ft | 412 kts | 70° |
| 2026-04-26 19:08 | -40.82668 | -70.85366 | 19476 ft | 415 kts | 70° |
| 2026-04-26 19:08 | -40.81472 | -70.81877 | 19946 ft | 419 kts | 70° |
| 2026-04-26 19:08 | -40.80263 | -70.78358 | 20434 ft | 422 kts | 70° |
| 2026-04-26 19:08 | -40.79043 | -70.74809 | 20891 ft | 427 kts | 70° |
| 2026-04-26 19:09 | -40.77813 | -70.71237 | 21376 ft | 430 kts | 70° |
| 2026-04-26 19:09 | -40.76571 | -70.67632 | 21845 ft | 434 kts | 70° |
| 2026-04-26 19:09 | -40.75255 | -70.64031 | 22321 ft | 440 kts | 65° |
| 2026-04-26 19:09 | -40.73620 | -70.60699 | 22786 ft | 448 kts | 57° |
| 2026-04-26 19:10 | -40.71576 | -70.57558 | 23276 ft | 455 kts | 50° |
| 2026-04-26 19:10 | -40.69403 | -70.54502 | 23751 ft | 459 kts | 50° |
| 2026-04-26 19:10 | -40.67221 | -70.51413 | 24177 ft | 462 kts | 50° |
| 2026-04-26 19:10 | -40.65032 | -70.48301 | 24607 ft | 465 kts | 50° |
| 2026-04-26 19:11 | -40.62829 | -70.45164 | 25047 ft | 468 kts | 50° |
| 2026-04-26 19:11 | -40.60617 | -70.42000 | 25444 ft | 471 kts | 52° |
| 2026-04-26 19:11 | -40.58595 | -70.38613 | 25850 ft | 471 kts | 57° |
| 2026-04-26 19:11 | -40.56630 | -70.35148 | 26259 ft | 474 kts | 57° |
| 2026-04-26 19:12 | -40.54650 | -70.31664 | 26666 ft | 477 kts | 57° |
| 2026-04-26 19:12 | -40.52652 | -70.28157 | 27075 ft | 480 kts | 57° |
| 2026-04-26 19:12 | -40.50642 | -70.24635 | 27457 ft | 484 kts | 57° |
| 2026-04-26 19:12 | -40.48645 | -70.21143 | 27884 ft | 486 kts | 57° |
| 2026-04-26 19:13 | -40.46605 | -70.17584 | 28296 ft | 489 kts | 58° |
| 2026-04-26 19:13 | -40.44555 | -70.14010 | 28672 ft | 492 kts | 58° |
| 2026-04-26 19:13 | -40.42490 | -70.10415 | 29059 ft | 494 kts | 58° |
| 2026-04-26 19:13 | -40.40412 | -70.06800 | 29428 ft | 498 kts | 58° |
| 2026-04-26 19:14 | -40.38322 | -70.03169 | 29759 ft | 501 kts | 58° |
| 2026-04-26 19:14 | -40.36214 | -69.99511 | 30115 ft | 504 kts | 58° |
| 2026-04-26 19:14 | -40.34096 | -69.95838 | 30495 ft | 506 kts | 58° |
| 2026-04-26 19:14 | -40.33377 | -69.94595 | 30611 ft | 507 kts | 58° |
| 2026-04-26 19:15 | -40.29817 | -69.88437 | 31135 ft | 512 kts | 58° |
| 2026-04-26 19:15 | -40.27661 | -69.84714 | 31475 ft | 515 kts | 58° |
| 2026-04-26 19:15 | -40.25487 | -69.80966 | 31802 ft | 518 kts | 58° |
| 2026-04-26 19:15 | -40.23305 | -69.77209 | 32109 ft | 520 kts | 58° |
| 2026-04-26 19:16 | -40.21108 | -69.73428 | 32443 ft | 523 kts | 58° |
| 2026-04-26 19:16 | -40.18901 | -69.69634 | 32734 ft | 526 kts | 58° |
| 2026-04-26 19:16 | -40.16679 | -69.65820 | 32968 ft | 528 kts | 58° |
| 2026-04-26 19:16 | -40.14446 | -69.61993 | 33228 ft | 530 kts | 58° |
| 2026-04-26 19:17 | -40.12205 | -69.58158 | 33454 ft | 532 kts | 58° |
| 2026-04-26 19:17 | -40.09954 | -69.54310 | 33633 ft | 534 kts | 58° |
| 2026-04-26 19:17 | -40.07698 | -69.50457 | 33826 ft | 535 kts | 58° |
| 2026-04-26 19:17 | -40.05437 | -69.46603 | 34053 ft | 535 kts | 58° |
| 2026-04-26 19:18 | -40.03177 | -69.42752 | 34300 ft | 535 kts | 58° |
| 2026-04-26 19:18 | -40.00916 | -69.38905 | 34490 ft | 534 kts | 58° |
| 2026-04-26 19:18 | -39.98655 | -69.35063 | 34716 ft | 534 kts | 58° |
| 2026-04-26 19:18 | -39.96394 | -69.31224 | 34929 ft | 533 kts | 58° |
| 2026-04-26 19:19 | -39.94137 | -69.27397 | 35143 ft | 532 kts | 58° |
| 2026-04-26 19:19 | -39.91882 | -69.23579 | 35358 ft | 532 kts | 58° |
| 2026-04-26 19:19 | -39.89624 | -69.19758 | 35546 ft | 532 kts | 57° |
| 2026-04-26 19:19 | -39.87368 | -69.15945 | 35765 ft | 531 kts | 57° |
| 2026-04-26 19:20 | -39.85143 | -69.12191 | 35954 ft | 531 kts | 57° |
| 2026-04-26 19:20 | -39.80632 | -69.04589 | 36342 ft | 531 kts | 57° |
| 2026-04-26 19:20 | -39.78373 | -69.00787 | 36517 ft | 531 kts | 57° |
| 2026-04-26 19:21 | -39.76117 | -68.96997 | 36721 ft | 530 kts | 57° |
| 2026-04-26 19:21 | -39.73857 | -68.93204 | 36899 ft | 530 kts | 56° |
| 2026-04-26 19:21 | -39.71599 | -68.89418 | 37091 ft | 530 kts | 56° |
| 2026-04-26 19:21 | -39.69338 | -68.85634 | 37265 ft | 530 kts | 56° |
| 2026-04-26 19:22 | -39.67076 | -68.81850 | 37437 ft | 530 kts | 56° |
| 2026-04-26 19:22 | -39.65577 | -68.79347 | 37558 ft | 530 kts | 56° |
| 2026-04-26 19:22 | -39.63313 | -68.75568 | 37726 ft | 531 kts | 56° |
| 2026-04-26 19:22 | -39.60280 | -68.70514 | 37975 ft | 530 kts | 56° |
| 2026-04-26 19:23 | -39.58779 | -68.68017 | 38086 ft | 530 kts | 55° |
| 2026-04-26 19:23 | -39.55744 | -68.62972 | 38317 ft | 530 kts | 55° |
| 2026-04-26 19:23 | -39.54241 | -68.60477 | 38434 ft | 530 kts | 55° |
| 2026-04-26 19:23 | -39.51972 | -68.56715 | 38616 ft | 530 kts | 55° |
| 2026-04-26 19:24 | -39.49700 | -68.52951 | 38790 ft | 530 kts | 54° |
| 2026-04-26 19:24 | -39.47430 | -68.49194 | 38965 ft | 529 kts | 54° |
| 2026-04-26 19:24 | -39.42890 | -68.41699 | 39237 ft | 529 kts | 54° |
| 2026-04-26 19:25 | -39.39115 | -68.35480 | 39265 ft | 528 kts | 54° |
| 2026-04-26 19:25 | -39.33814 | -68.26761 | 39264 ft | 528 kts | 54° |
| 2026-04-26 19:26 | -39.29271 | -68.19317 | 39262 ft | 528 kts | 54° |
| 2026-04-26 19:26 | -39.24719 | -68.11874 | 39256 ft | 528 kts | 54° |
| 2026-04-26 19:27 | -39.20951 | -68.05722 | 39251 ft | 528 kts | 54° |
| 2026-04-26 19:27 | -39.16395 | -67.98300 | 39248 ft | 528 kts | 54° |
| 2026-04-26 19:28 | -39.11833 | -67.90886 | 39249 ft | 528 kts | 54° |
| 2026-04-26 19:28 | -39.07266 | -67.83483 | 39251 ft | 528 kts | 54° |
| 2026-04-26 19:29 | -39.02723 | -67.76134 | 39249 ft | 528 kts | 53° |
| 2026-04-26 19:29 | -38.98142 | -67.68741 | 39253 ft | 529 kts | 53° |
| 2026-04-26 19:30 | -38.93553 | -67.61353 | 39252 ft | 529 kts | 53° |
| 2026-04-26 19:30 | -38.89699 | -67.55162 | 39254 ft | 530 kts | 53° |
| 2026-04-26 19:31 | -38.84347 | -67.46583 | 39249 ft | 530 kts | 53° |
| 2026-04-26 19:31 | -38.79733 | -67.39204 | 39248 ft | 530 kts | 53° |
| 2026-04-26 19:32 | -38.75113 | -67.31835 | 39241 ft | 531 kts | 53° |
| 2026-04-26 19:32 | -38.70481 | -67.24462 | 39247 ft | 531 kts | 53° |
| 2026-04-26 19:33 | -38.65841 | -67.17095 | 39243 ft | 532 kts | 53° |
| 2026-04-26 19:33 | -38.61194 | -67.09732 | 39243 ft | 532 kts | 53° |
| 2026-04-26 19:34 | -38.56538 | -67.02374 | 39238 ft | 532 kts | 53° |
| 2026-04-26 19:34 | -38.51875 | -66.95020 | 39241 ft | 533 kts | 52° |
| 2026-04-26 19:35 | -38.47204 | -66.87672 | 39233 ft | 533 kts | 52° |
| 2026-04-26 19:35 | -38.42527 | -66.80330 | 39234 ft | 533 kts | 52° |
| 2026-04-26 19:36 | -38.38631 | -66.74227 | 39238 ft | 534 kts | 52° |
| 2026-04-26 19:36 | -38.33358 | -66.65472 | 39233 ft | 532 kts | 60° |
| 2026-04-26 19:37 | -38.29803 | -66.57250 | 39228 ft | 530 kts | 65° |
| 2026-04-26 19:37 | -38.26333 | -66.48964 | 39226 ft | 531 kts | 65° |
| 2026-04-26 19:38 | -38.22864 | -66.40744 | 39219 ft | 531 kts | 65° |
| 2026-04-26 19:38 | -38.19330 | -66.32405 | 39222 ft | 532 kts | 64° |
| 2026-04-26 19:39 | -38.15811 | -66.24127 | 39222 ft | 533 kts | 64° |
| 2026-04-26 19:39 | -38.12307 | -66.15902 | 39225 ft | 533 kts | 64° |
| 2026-04-26 19:40 | -38.08771 | -66.07624 | 39207 ft | 533 kts | 64° |
| 2026-04-26 19:40 | -38.05231 | -65.99356 | 39212 ft | 534 kts | 64° |
| 2026-04-26 19:41 | -38.01676 | -65.91085 | 39208 ft | 534 kts | 64° |
| 2026-04-26 19:41 | -37.98697 | -65.84159 | 39203 ft | 534 kts | 64° |
| 2026-04-26 19:42 | -37.94544 | -65.74571 | 39198 ft | 534 kts | 64° |
| 2026-04-26 19:42 | -37.90977 | -65.66318 | 39200 ft | 534 kts | 63° |
| 2026-04-26 19:43 | -37.87386 | -65.58086 | 39191 ft | 534 kts | 63° |
| 2026-04-26 19:43 | -37.83800 | -65.49847 | 39185 ft | 535 kts | 63° |
| 2026-04-26 19:44 | -37.80207 | -65.41611 | 39181 ft | 535 kts | 63° |
| 2026-04-26 19:44 | -37.76604 | -65.33374 | 39178 ft | 536 kts | 63° |
| 2026-04-26 19:45 | -37.72991 | -65.25135 | 39173 ft | 536 kts | 63° |
| 2026-04-26 19:45 | -37.69379 | -65.16891 | 39173 ft | 537 kts | 63° |
| 2026-04-26 19:46 | -37.65752 | -65.08642 | 39171 ft | 537 kts | 63° |
| 2026-04-26 19:46 | -37.62116 | -65.00402 | 39169 ft | 537 kts | 63° |
| 2026-04-26 19:47 | -37.59095 | -64.93552 | 39167 ft | 537 kts | 63° |
| 2026-04-26 19:47 | -37.54839 | -64.83935 | 39159 ft | 538 kts | 63° |
| 2026-04-26 19:48 | -37.51183 | -64.75716 | 39154 ft | 538 kts | 62° |
| 2026-04-26 19:48 | -37.47522 | -64.67501 | 39149 ft | 538 kts | 63° |
| 2026-04-26 19:49 | -37.43863 | -64.59290 | 39151 ft | 538 kts | 62° |
| 2026-04-26 19:49 | -37.40187 | -64.51084 | 39142 ft | 539 kts | 62° |
| 2026-04-26 19:50 | -37.36520 | -64.42932 | 39141 ft | 539 kts | 62° |
| 2026-04-26 19:50 | -37.32821 | -64.34729 | 39133 ft | 540 kts | 62° |
| 2026-04-26 19:51 | -37.29068 | -64.26543 | 39136 ft | 541 kts | 61° |
| 2026-04-26 19:51 | -37.25309 | -64.18355 | 39141 ft | 541 kts | 61° |
| 2026-04-26 19:52 | -37.21543 | -64.10160 | 39126 ft | 542 kts | 61° |
| 2026-04-26 19:52 | -37.17754 | -64.01932 | 39127 ft | 543 kts | 60° |
| 2026-04-26 19:53 | -37.13983 | -63.93765 | 39123 ft | 544 kts | 60° |
| 2026-04-26 19:53 | -37.10184 | -63.85559 | 39121 ft | 545 kts | 60° |
| 2026-04-26 19:54 | -37.06374 | -63.77349 | 39117 ft | 545 kts | 60° |
| 2026-04-26 19:54 | -37.02555 | -63.69137 | 39119 ft | 546 kts | 60° |
| 2026-04-26 19:55 | -36.98726 | -63.60923 | 39115 ft | 547 kts | 60° |
| 2026-04-26 19:55 | -36.94886 | -63.52708 | 39110 ft | 548 kts | 60° |
| 2026-04-26 19:56 | -36.91072 | -63.44568 | 39109 ft | 548 kts | 59° |
| 2026-04-26 19:56 | -36.87202 | -63.36327 | 39110 ft | 553 kts | 59° |
| 2026-04-26 19:57 | -36.83291 | -63.28020 | 39104 ft | 557 kts | 59° |
| 2026-04-26 19:57 | -36.79373 | -63.19719 | 39107 ft | 560 kts | 59° |
| 2026-04-26 19:58 | -36.75407 | -63.11338 | 39097 ft | 562 kts | 59° |
| 2026-04-26 19:58 | -36.71419 | -63.02931 | 39093 ft | 564 kts | 59° |
| 2026-04-26 19:59 | -36.67418 | -62.94516 | 39089 ft | 565 kts | 59° |
| 2026-04-26 19:59 | -36.63404 | -62.86096 | 39083 ft | 566 kts | 58° |
| 2026-04-26 20:00 | -36.59374 | -62.77666 | 39054 ft | 567 kts | 58° |
| 2026-04-26 20:00 | -36.55333 | -62.69232 | 39053 ft | 568 kts | 58° |
| 2026-04-26 20:01 | -36.51280 | -62.60796 | 39057 ft | 569 kts | 58° |
| 2026-04-26 20:01 | -36.47217 | -62.52358 | 39050 ft | 569 kts | 58° |
| 2026-04-26 20:02 | -36.43145 | -62.43923 | 39044 ft | 570 kts | 58° |
| 2026-04-26 20:02 | -36.39752 | -62.36916 | 39040 ft | 570 kts | 57° |
| 2026-04-26 20:03 | -36.34953 | -62.27078 | 39040 ft | 570 kts | 57° |
| 2026-04-26 20:03 | -36.30851 | -62.18657 | 39038 ft | 571 kts | 57° |
| 2026-04-26 20:04 | -36.26764 | -62.10221 | 39030 ft | 571 kts | 57° |
| 2026-04-26 20:04 | -36.22654 | -62.01794 | 39022 ft | 572 kts | 57° |
| 2026-04-26 20:05 | -36.18553 | -61.93425 | 39024 ft | 572 kts | 57° |
| 2026-04-26 20:05 | -36.14419 | -61.85007 | 39018 ft | 573 kts | 57° |
| 2026-04-26 20:06 | -36.10272 | -61.76576 | 39015 ft | 573 kts | 57° |
| 2026-04-26 20:06 | -36.06136 | -61.68180 | 39014 ft | 574 kts | 57° |
| 2026-04-26 20:07 | -36.01965 | -61.59729 | 39009 ft | 574 kts | 56° |
| 2026-04-26 20:07 | -35.97810 | -61.51329 | 39006 ft | 575 kts | 56° |
| 2026-04-26 20:08 | -35.93625 | -61.42891 | 39001 ft | 575 kts | 56° |
| 2026-04-26 20:08 | -35.89444 | -61.34480 | 38996 ft | 576 kts | 56° |
| 2026-04-26 20:09 | -35.85263 | -61.26060 | 38993 ft | 576 kts | 56° |
| 2026-04-26 20:09 | -35.81097 | -61.17620 | 38988 ft | 577 kts | 56° |
| 2026-04-26 20:10 | -35.76923 | -61.09190 | 38985 ft | 577 kts | 56° |
| 2026-04-26 20:10 | -35.72736 | -61.00764 | 38980 ft | 577 kts | 56° |
| 2026-04-26 20:11 | -35.69244 | -60.93754 | 38976 ft | 578 kts | 56° |
| 2026-04-26 20:12 | -35.62933 | -60.81127 | 38972 ft | 578 kts | 56° |
| 2026-04-26 20:12 | -35.58718 | -60.72722 | 38966 ft | 578 kts | 56° |
| 2026-04-26 20:13 | -35.54505 | -60.64323 | 38959 ft | 578 kts | 56° |
| 2026-04-26 20:13 | -35.50286 | -60.55939 | 38960 ft | 577 kts | 55° |
| 2026-04-26 20:13 | -35.48174 | -60.51753 | 38841 ft | 573 kts | 54° |
| 2026-04-26 20:14 | -35.46017 | -60.47694 | 38124 ft | 566 kts | 54° |
| 2026-04-26 20:14 | -35.43932 | -60.43609 | 36992 ft | 568 kts | 55° |
| 2026-04-26 20:14 | -35.42097 | -60.39918 | 35776 ft | 571 kts | 55° |
| 2026-04-26 20:14 | -35.40001 | -60.35700 | 34438 ft | 576 kts | 55° |
| 2026-04-26 20:15 | -35.37895 | -60.31499 | 32929 ft | 582 kts | 55° |
| 2026-04-26 20:15 | -35.35759 | -60.27273 | 31125 ft | 585 kts | 55° |
| 2026-04-26 20:15 | -35.33598 | -60.23023 | 29019 ft | 592 kts | 55° |
| 2026-04-26 20:15 | -35.31425 | -60.18751 | 27254 ft | 590 kts | 55° |
| 2026-04-26 20:16 | -35.29260 | -60.14499 | 25889 ft | 585 kts | 55° |
| 2026-04-26 20:16 | -35.27125 | -60.10311 | 24862 ft | 575 kts | 54° |
| 2026-04-26 20:16 | -35.25025 | -60.06196 | 24153 ft | 566 kts | 54° |
| 2026-04-26 20:16 | -35.23000 | -60.02236 | 23599 ft | 557 kts | 54° |
| 2026-04-26 20:17 | -35.20913 | -59.98163 | 22944 ft | 549 kts | 54° |
| 2026-04-26 20:17 | -35.18898 | -59.94238 | 22296 ft | 541 kts | 54° |
| 2026-04-26 20:17 | -35.16911 | -59.90370 | 21668 ft | 533 kts | 54° |
| 2026-04-26 20:17 | -35.15102 | -59.86853 | 21093 ft | 525 kts | 54° |
| 2026-04-26 20:18 | -35.13195 | -59.83146 | 20490 ft | 518 kts | 54° |
| 2026-04-26 20:18 | -35.11295 | -59.79457 | 19893 ft | 510 kts | 54° |
| 2026-04-26 20:18 | -35.09421 | -59.75822 | 19313 ft | 502 kts | 54° |
| 2026-04-26 20:18 | -35.07575 | -59.72246 | 18741 ft | 494 kts | 54° |
| 2026-04-26 20:19 | -35.05759 | -59.68728 | 18169 ft | 486 kts | 54° |
| 2026-04-26 20:19 | -35.04000 | -59.65244 | 17493 ft | 479 kts | 59° |
| 2026-04-26 20:19 | -35.02787 | -59.61500 | 16965 ft | 469 kts | 76° |
| 2026-04-26 20:19 | -35.02336 | -59.57639 | 16557 ft | 452 kts | 90° |
| 2026-04-26 20:20 | -35.02201 | -59.53841 | 16141 ft | 446 kts | 91° |
| 2026-04-26 20:20 | -35.02067 | -59.50092 | 15735 ft | 438 kts | 90° |
| 2026-04-26 20:20 | -35.01925 | -59.46426 | 15313 ft | 427 kts | 90° |
| 2026-04-26 20:20 | -35.01780 | -59.42830 | 14922 ft | 422 kts | 90° |
| 2026-04-26 20:21 | -35.01633 | -59.39291 | 14521 ft | 413 kts | 90° |
| 2026-04-26 20:21 | -35.01486 | -59.35833 | 14137 ft | 405 kts | 90° |
| 2026-04-26 20:21 | -35.01340 | -59.32432 | 13752 ft | 398 kts | 89° |
| 2026-04-26 20:21 | -35.01196 | -59.29088 | 13314 ft | 392 kts | 89° |
| 2026-04-26 20:22 | -35.01054 | -59.25825 | 12886 ft | 392 kts | 89° |
| 2026-04-26 20:22 | -35.00909 | -59.22509 | 12452 ft | 390 kts | 89° |
| 2026-04-26 20:22 | -35.00763 | -59.19217 | 12029 ft | 387 kts | 89° |
| 2026-04-26 20:22 | -35.00618 | -59.15954 | 11609 ft | 384 kts | 89° |
| 2026-04-26 20:23 | -35.00473 | -59.12703 | 11195 ft | 383 kts | 89° |
| 2026-04-26 20:23 | -35.00330 | -59.09516 | 10791 ft | 380 kts | 89° |
| 2026-04-26 20:23 | -35.00183 | -59.06261 | 10384 ft | 378 kts | 90° |
| 2026-04-26 20:23 | -35.00040 | -59.03125 | 9992 ft | 370 kts | 90° |
| 2026-04-26 20:24 | -34.99959 | -59.01377 | 9766 ft | 363 kts | 90° |
| 2026-04-26 20:24 | -34.99819 | -58.98388 | 9297 ft | 352 kts | 90° |
| 2026-04-26 20:25 | -34.99669 | -58.95461 | 8862 ft | 339 kts | 80° |
| 2026-04-26 20:25 | -34.99578 | -58.94578 | 8703 ft | 332 kts | 78° |
| 2026-04-26 20:25 | -34.99210 | -58.91001 | 8209 ft | 312 kts | 86° |
| 2026-04-26 20:25 | -34.99075 | -58.88381 | 7827 ft | 311 kts | 90° |
| 2026-04-26 20:26 | -34.99003 | -58.85788 | 7445 ft | 308 kts | 92° |
| 2026-04-26 20:26 | -34.98941 | -58.83194 | 7066 ft | 305 kts | 92° |
| 2026-04-26 20:26 | -34.98869 | -58.80609 | 6693 ft | 304 kts | 92° |
| 2026-04-26 20:26 | -34.98783 | -58.78047 | 6325 ft | 302 kts | 92° |
| 2026-04-26 20:27 | -34.98683 | -58.75491 | 5928 ft | 301 kts | 91° |
| 2026-04-26 20:27 | -34.98579 | -58.72947 | 5538 ft | 300 kts | 91° |
| 2026-04-26 20:27 | -34.98473 | -58.70423 | 5248 ft | 297 kts | 91° |
| 2026-04-26 20:27 | -34.98364 | -58.67897 | 4997 ft | 299 kts | 90° |
| 2026-04-26 20:28 | -34.98252 | -58.65368 | 4738 ft | 298 kts | 90° |
| 2026-04-26 20:28 | -34.98137 | -58.62848 | 4473 ft | 298 kts | 90° |
| 2026-04-26 20:28 | -34.98019 | -58.60329 | 4214 ft | 296 kts | 90° |
| 2026-04-26 20:28 | -34.97899 | -58.57834 | 3956 ft | 294 kts | 90° |
| 2026-04-26 20:29 | -34.97780 | -58.55340 | 3701 ft | 294 kts | 90° |
| 2026-04-26 20:29 | -34.97658 | -58.52855 | 3456 ft | 294 kts | 90° |
| 2026-04-26 20:29 | -34.97535 | -58.50371 | 3188 ft | 293 kts | 90° |
| 2026-04-26 20:29 | -34.97412 | -58.47892 | 3005 ft | 292 kts | 90° |
| 2026-04-26 20:30 | -34.97289 | -58.45423 | 2981 ft | 291 kts | 90° |
| 2026-04-26 20:30 | -34.97166 | -58.43051 | 2975 ft | 266 kts | 90° |
| 2026-04-26 20:30 | -34.97050 | -58.40901 | 2975 ft | 243 kts | 90° |
| 2026-04-26 20:30 | -34.96947 | -58.38853 | 2978 ft | 243 kts | 90° |
| 2026-04-26 20:31 | -34.96848 | -58.36808 | 2978 ft | 241 kts | 91° |
| 2026-04-26 20:31 | -34.96596 | -58.34791 | 2968 ft | 243 kts | 70° |
| 2026-04-26 20:31 | -34.95649 | -58.33098 | 2975 ft | 243 kts | 37° |
| 2026-04-26 20:31 | -34.94197 | -58.32195 | 2970 ft | 229 kts | 4° |
| 2026-04-26 20:32 | -34.92636 | -58.31965 | 2685 ft | 227 kts | 354° |
| 2026-04-26 20:32 | -34.91092 | -58.31877 | 2511 ft | 214 kts | 352° |
| 2026-04-26 20:32 | -34.89676 | -58.31875 | 2469 ft | 194 kts | 348° |
| 2026-04-26 20:32 | -34.88312 | -58.31911 | 2476 ft | 196 kts | 348° |
| 2026-04-26 20:33 | -34.87036 | -58.32020 | 2453 ft | 166 kts | 332° |
| 2026-04-26 20:33 | -34.86137 | -58.32706 | 2494 ft | 152 kts | 301° |
| 2026-04-26 20:33 | -34.85700 | -58.33785 | 2452 ft | 135 kts | 274° |
| 2026-04-26 20:33 | -34.85539 | -58.34896 | 2168 ft | 133 kts | 272° |
| 2026-04-26 20:34 | -34.85376 | -58.36007 | 1849 ft | 137 kts | 273° |
| 2026-04-26 20:34 | -34.85193 | -58.37135 | 1692 ft | 129 kts | 274° |
| 2026-04-26 20:34 | -34.85007 | -58.38160 | 1711 ft | 128 kts | 275° |
| 2026-04-26 20:34 | -34.84817 | -58.39209 | 1683 ft | 125 kts | 275° |
| 2026-04-26 20:35 | -34.84627 | -58.40242 | 1690 ft | 125 kts | 275° |
| 2026-04-26 20:35 | -34.84434 | -58.41273 | 1674 ft | 125 kts | 274° |
| 2026-04-26 20:35 | -34.84261 | -58.42306 | 1601 ft | 125 kts | 272° |
| 2026-04-26 20:35 | -34.84100 | -58.43350 | 1499 ft | 126 kts | 268° |
| 2026-04-26 20:36 | -34.83927 | -58.44415 | 1388 ft | 130 kts | 275° |
| 2026-04-26 20:36 | -34.83733 | -58.45480 | 1173 ft | 128 kts | 278° |
| 2026-04-26 20:36 | -34.83518 | -58.46510 | 956 ft | 127 kts | 274° |
| 2026-04-26 20:36 | -34.83329 | -58.47578 | 802 ft | 130 kts | 276° |
| 2026-04-26 20:37 | -34.83136 | -58.48628 | 648 ft | 130 kts | 277° |
| 2026-04-26 20:37 | -34.82942 | -58.49689 | 466 ft | 130 kts | 278° |
| 2026-04-26 20:37 | -34.82738 | -58.50758 | 295 ft | 130 kts | 277° |
| 2026-04-26 20:37 | -34.82537 | -58.51851 | 145 ft | 133 kts | 283° |
| 2026-04-26 20:38 | -34.82339 | -58.52913 | 99 ft | 119 kts | 281° |
| 2026-04-26 20:38 | -34.82215 | -58.53687 | 86 ft | 68 kts | 279° |
| 2026-04-26 20:38 | -34.82149 | -58.54056 | 91 ft | 27 kts | 283° |
| 2026-04-26 20:38 | -34.82110 | -58.54253 | 89 ft | 23 kts | 283° |
| 2026-04-26 20:39 | -34.82076 | -58.54447 | 90 ft | 24 kts | 282° |
| 2026-04-26 20:39 | -34.82040 | -58.54522 | 91 ft | 0 kts | 323° |
| 2026-04-26 20:39 | -34.81963 | -58.54514 | 90 ft | 15 kts | 24° |
| 2026-04-26 20:39 | -34.81946 | -58.54500 | 86 ft | 6 kts | 33° |
| 2026-04-26 20:40 | -34.81873 | -58.54440 | 85 ft | 19 kts | 34° |
| 2026-04-26 20:40 | -34.81786 | -58.54351 | 86 ft | 0 kts | 52° |
| 2026-04-26 20:40 | -34.81771 | -58.54311 | 85 ft | 16 kts | 65° |
| 2026-04-26 20:40 | -34.81733 | -58.54280 | 86 ft | 9 kts | 19° |
| 2026-04-26 20:41 | -34.81664 | -58.54260 | 84 ft | 6 kts | 13° |
| 2026-04-26 20:41 | -34.81656 | -58.54258 | 85 ft | 0 kts | 13° |